sensor_id;sensor_type;location;lat;lon;timestamp;pressure;altitude;pressure_sealevel;temperature;humidity
21290;BME280;10804;48.988;2.408;2023-05-08T00:01:34;101432.84;;;17.84;62.87
21290;BME280;10804;48.988;2.408;2023-05-08T00:04:02;101427.66;;;17.82;62.73
21290;BME280;10804;48.988;2.408;2023-05-08T00:06:29;101429.56;;;17.79;62.78
21290;BME280;10804;48.988;2.408;2023-05-08T00:08:56;101428.75;;;17.77;62.91
21290;BME280;10804;48.988;2.408;2023-05-08T00:11:24;101417.41;;;17.75;62.91
21290;BME280;10804;48.988;2.408;2023-05-08T00:13:52;101424.56;;;17.73;62.88
21290;BME280;10804;48.988;2.408;2023-05-08T00:16:19;101436.03;;;17.72;62.99
21290;BME280;10804;48.988;2.408;2023-05-08T00:18:47;101434.38;;;17.69;62.92
21290;BME280;10804;48.988;2.408;2023-05-08T00:21:14;101442.34;;;17.68;62.80
21290;BME280;10804;48.988;2.408;2023-05-08T00:23:44;101435.50;;;17.64;63.02
21290;BME280;10804;48.988;2.408;2023-05-08T00:26:11;101433.72;;;17.64;62.99
21290;BME280;10804;48.988;2.408;2023-05-08T00:28:39;101426.78;;;17.62;62.98
21290;BME280;10804;48.988;2.408;2023-05-08T00:31:07;101427.72;;;17.61;63.08
21290;BME280;10804;48.988;2.408;2023-05-08T00:33:35;101435.63;;;17.61;63.18
21290;BME280;10804;48.988;2.408;2023-05-08T00:36:03;101430.50;;;17.58;63.11
21290;BME280;10804;48.988;2.408;2023-05-08T00:38:31;101415.78;;;17.52;63.25
21290;BME280;10804;48.988;2.408;2023-05-08T00:41:00;101418.50;;;17.51;63.25
21290;BME280;10804;48.988;2.408;2023-05-08T00:43:27;101425.47;;;17.52;63.13
21290;BME280;10804;48.988;2.408;2023-05-08T00:45:56;101420.34;;;17.49;63.28
21290;BME280;10804;48.988;2.408;2023-05-08T00:48:28;101427.31;;;17.50;63.34
21290;BME280;10804;48.988;2.408;2023-05-08T00:50:57;101418.75;;;17.45;63.30
21290;BME280;10804;48.988;2.408;2023-05-08T00:53:25;101413.47;;;17.45;63.40
21290;BME280;10804;48.988;2.408;2023-05-08T00:55:53;101414.44;;;17.42;63.35
21290;BME280;10804;48.988;2.408;2023-05-08T00:58:21;101414.44;;;17.42;63.30
21290;BME280;10804;48.988;2.408;2023-05-08T01:00:50;101415.44;;;17.40;63.42
21290;BME280;10804;48.988;2.408;2023-05-08T01:03:21;101419.91;;;17.38;63.59
21290;BME280;10804;48.988;2.408;2023-05-08T01:05:51;101407.69;;;17.35;63.35
21290;BME280;10804;48.988;2.408;2023-05-08T01:08:18;101406.84;;;17.35;63.42
21290;BME280;10804;48.988;2.408;2023-05-08T01:10:50;101412.19;;;17.33;63.33
21290;BME280;10804;48.988;2.408;2023-05-08T01:13:30;101419.31;;;17.31;63.50
21290;BME280;10804;48.988;2.408;2023-05-08T01:16:08;101412.38;;;17.29;63.48
21290;BME280;10804;48.988;2.408;2023-05-08T01:18:39;101417.69;;;17.27;63.40
21290;BME280;10804;48.988;2.408;2023-05-08T01:21:16;101413.34;;;17.26;63.40
21290;BME280;10804;48.988;2.408;2023-05-08T01:24:17;101418.78;;;17.23;63.37
21290;BME280;10804;48.988;2.408;2023-05-08T01:32:55;101429.41;;;17.20;63.44
21290;BME280;10804;48.988;2.408;2023-05-08T01:35:29;101426.88;;;17.19;63.54
21290;BME280;10804;48.988;2.408;2023-05-08T01:38:04;101427.78;;;17.18;63.48
21290;BME280;10804;48.988;2.408;2023-05-08T01:40:40;101428.59;;;17.20;63.54
21290;BME280;10804;48.988;2.408;2023-05-08T01:43:19;101426.00;;;17.18;63.60
21290;BME280;10804;48.988;2.408;2023-05-08T01:45:51;101425.16;;;17.18;63.58
21290;BME280;10804;48.988;2.408;2023-05-08T01:48:27;101425.16;;;17.18;63.66
21290;BME280;10804;48.988;2.408;2023-05-08T01:51:05;101428.69;;;17.17;63.60
21290;BME280;10804;48.988;2.408;2023-05-08T01:53:37;101426.94;;;17.17;63.49
21290;BME280;10804;48.988;2.408;2023-05-08T01:56:08;101425.22;;;17.16;63.57
21290;BME280;10804;48.988;2.408;2023-05-08T01:58:37;101421.72;;;17.16;63.58
21290;BME280;10804;48.988;2.408;2023-05-08T02:01:06;101422.69;;;17.13;63.66
21290;BME280;10804;48.988;2.408;2023-05-08T02:03:38;101432.38;;;17.13;63.56
21290;BME280;10804;48.988;2.408;2023-05-08T02:06:09;101425.31;;;17.13;63.47
21290;BME280;10804;48.988;2.408;2023-05-08T02:08:39;101431.50;;;17.12;63.55
21290;BME280;10804;48.988;2.408;2023-05-08T02:11:09;101426.25;;;17.12;63.53
21290;BME280;10804;48.988;2.408;2023-05-08T02:13:39;101428.97;;;17.11;63.63
21290;BME280;10804;48.988;2.408;2023-05-08T02:16:07;101427.25;;;17.10;63.60
21290;BME280;10804;48.988;2.408;2023-05-08T02:18:39;101436.97;;;17.08;63.55
21290;BME280;10804;48.988;2.408;2023-05-08T02:21:10;101435.28;;;17.07;63.53
21290;BME280;10804;48.988;2.408;2023-05-08T02:23:39;101446.59;;;17.09;63.57
21290;BME280;10804;48.988;2.408;2023-05-08T02:26:08;101445.81;;;17.07;63.46
21290;BME280;10804;48.988;2.408;2023-05-08T02:28:35;101440.59;;;17.05;63.59
21290;BME280;10804;48.988;2.408;2023-05-08T02:31:04;101440.59;;;17.05;63.39
21290;BME280;10804;48.988;2.408;2023-05-08T02:33:33;101439.75;;;17.05;63.64
21290;BME280;10804;48.988;2.408;2023-05-08T02:36:03;101443.31;;;17.04;63.60
21290;BME280;10804;48.988;2.408;2023-05-08T02:38:30;101441.59;;;17.03;63.43
21290;BME280;10804;48.988;2.408;2023-05-08T02:41:00;101446.00;;;17.02;63.58
21290;BME280;10804;48.988;2.408;2023-05-08T02:43:29;101445.13;;;17.02;63.60
21290;BME280;10804;48.988;2.408;2023-05-08T02:46:03;101445.13;;;17.02;63.46
21290;BME280;10804;48.988;2.408;2023-05-08T02:48:39;101439.94;;;17.00;63.66
21290;BME280;10804;48.988;2.408;2023-05-08T02:51:17;101442.59;;;17.00;63.55
21290;BME280;10804;48.988;2.408;2023-05-08T02:53:50;101446.13;;;16.99;63.51
21290;BME280;10804;48.988;2.408;2023-05-08T02:56:30;101441.84;;;16.97;63.48
21290;BME280;10804;48.988;2.408;2023-05-08T02:59:03;101440.13;;;16.96;63.48
21290;BME280;10804;48.988;2.408;2023-05-08T03:01:41;101440.19;;;16.94;63.48
21290;BME280;10804;48.988;2.408;2023-05-08T03:04:11;101443.69;;;16.95;63.44
21290;BME280;10804;48.988;2.408;2023-05-08T03:06:45;101434.13;;;16.92;63.53
21290;BME280;10804;48.988;2.408;2023-05-08T03:09:17;101437.59;;;16.93;63.53
21290;BME280;10804;48.988;2.408;2023-05-08T03:11:48;101434.19;;;16.91;63.72
21290;BME280;10804;48.988;2.408;2023-05-08T03:14:19;101442.09;;;16.91;63.72
21290;BME280;10804;48.988;2.408;2023-05-08T03:16:50;101438.66;;;16.89;63.67
21290;BME280;10804;48.988;2.408;2023-05-08T03:19:20;101440.38;;;16.90;63.58
21290;BME280;10804;48.988;2.408;2023-05-08T03:21:50;101429.88;;;16.88;63.69
21290;BME280;10804;48.988;2.408;2023-05-08T03:24:18;101426.47;;;16.86;63.64
21290;BME280;10804;48.988;2.408;2023-05-08T03:26:46;101428.22;;;16.86;63.62
21290;BME280;10804;48.988;2.408;2023-05-08T03:29:15;101434.38;;;16.86;63.66
21290;BME280;10804;48.988;2.408;2023-05-08T03:31:43;101420.59;;;16.80;63.76
21290;BME280;10804;48.988;2.408;2023-05-08T03:34:11;101429.22;;;16.83;63.70
21290;BME280;10804;48.988;2.408;2023-05-08T03:36:39;101431.91;;;16.82;63.62
21290;BME280;10804;48.988;2.408;2023-05-08T03:39:09;101427.56;;;16.81;63.55
21290;BME280;10804;48.988;2.408;2023-05-08T03:41:36;101428.50;;;16.80;63.74
21290;BME280;10804;48.988;2.408;2023-05-08T03:44:04;101439.03;;;16.80;63.73
21290;BME280;10804;48.988;2.408;2023-05-08T03:46:34;101436.44;;;16.78;63.66
21290;BME280;10804;48.988;2.408;2023-05-08T03:49:03;101444.41;;;16.77;63.67
21290;BME280;10804;48.988;2.408;2023-05-08T03:51:31;101446.25;;;16.75;63.62
21290;BME280;10804;48.988;2.408;2023-05-08T03:53:58;101439.28;;;16.74;63.65
21290;BME280;10804;48.988;2.408;2023-05-08T03:56:28;101444.53;;;16.74;63.77
21290;BME280;10804;48.988;2.408;2023-05-08T03:59:06;101444.59;;;16.72;63.63
21290;BME280;10804;48.988;2.408;2023-05-08T04:01:37;101440.25;;;16.71;63.63
21290;BME280;10804;48.988;2.408;2023-05-08T04:04:10;101437.66;;;16.70;63.78
21290;BME280;10804;48.988;2.408;2023-05-08T04:06:47;101435.94;;;16.69;63.80
21290;BME280;10804;48.988;2.408;2023-05-08T04:09:22;101422.34;;;16.58;63.72
21290;BME280;10804;48.988;2.408;2023-05-08T04:12:02;101433.44;;;16.66;63.94
21290;BME280;10804;48.988;2.408;2023-05-08T04:14:36;101429.09;;;16.65;63.79
21290;BME280;10804;48.988;2.408;2023-05-08T04:17:09;101430.91;;;16.63;63.82
21290;BME280;10804;48.988;2.408;2023-05-08T04:19:45;101430.91;;;16.63;63.81
21290;BME280;10804;48.988;2.408;2023-05-08T04:22:13;101432.75;;;16.61;63.88
21290;BME280;10804;48.988;2.408;2023-05-08T04:24:44;101431.06;;;16.60;63.76
21290;BME280;10804;48.988;2.408;2023-05-08T04:27:17;101431.06;;;16.60;63.78
21290;BME280;10804;48.988;2.408;2023-05-08T04:29:45;101434.59;;;16.59;63.72
21290;BME280;10804;48.988;2.408;2023-05-08T04:32:13;101434.59;;;16.59;63.99
21290;BME280;10804;48.988;2.408;2023-05-08T04:34:40;101433.72;;;16.58;63.93
21290;BME280;10804;48.988;2.408;2023-05-08T04:37:07;101436.44;;;16.57;63.93
21290;BME280;10804;48.988;2.408;2023-05-08T04:39:35;101431.28;;;16.54;63.90
21290;BME280;10804;48.988;2.408;2023-05-08T04:42:03;101441.81;;;16.54;63.93
21290;BME280;10804;48.988;2.408;2023-05-08T04:44:34;101448.88;;;16.53;64.00
21290;BME280;10804;48.988;2.408;2023-05-08T04:47:01;101448.94;;;16.52;63.81
21290;BME280;10804;48.988;2.408;2023-05-08T04:49:28;101449.78;;;16.52;63.93
21290;BME280;10804;48.988;2.408;2023-05-08T04:51:56;101451.56;;;16.52;63.90
21290;BME280;10804;48.988;2.408;2023-05-08T04:54:23;101452.47;;;16.51;64.01
21290;BME280;10804;48.988;2.408;2023-05-08T04:56:51;101456.94;;;16.49;63.95
21290;BME280;10804;48.988;2.408;2023-05-08T04:59:18;101448.19;;;16.48;63.90
21290;BME280;10804;48.988;2.408;2023-05-08T05:01:47;101443.84;;;16.47;63.96
21290;BME280;10804;48.988;2.408;2023-05-08T05:04:14;101450.88;;;16.47;63.92
21290;BME280;10804;48.988;2.408;2023-05-08T05:06:42;101448.31;;;16.45;64.02
21290;BME280;10804;48.988;2.408;2023-05-08T05:09:11;101448.31;;;16.45;64.01
21290;BME280;10804;48.988;2.408;2023-05-08T05:11:38;101452.75;;;16.43;63.87
21290;BME280;10804;48.988;2.408;2023-05-08T05:14:06;101454.53;;;16.43;63.97
21290;BME280;10804;48.988;2.408;2023-05-08T05:16:34;101459.88;;;16.41;64.15
21290;BME280;10804;48.988;2.408;2023-05-08T05:19:03;101464.22;;;16.42;63.97
21290;BME280;10804;48.988;2.408;2023-05-08T05:21:31;101461.66;;;16.41;63.90
21290;BME280;10804;48.988;2.408;2023-05-08T05:23:59;101470.44;;;16.40;63.99
21290;BME280;10804;48.988;2.408;2023-05-08T05:26:26;101480.97;;;16.40;64.01
21290;BME280;10804;48.988;2.408;2023-05-08T05:28:54;101488.03;;;16.39;63.99
21290;BME280;10804;48.988;2.408;2023-05-08T05:31:21;101480.19;;;16.38;63.92
21290;BME280;10804;48.988;2.408;2023-05-08T05:33:49;101486.31;;;16.38;63.99
21290;BME280;10804;48.988;2.408;2023-05-08T05:36:17;101490.72;;;16.38;63.91
21290;BME280;10804;48.988;2.408;2023-05-08T05:38:45;101493.34;;;16.38;64.09
21290;BME280;10804;48.988;2.408;2023-05-08T05:41:13;101490.72;;;16.36;63.97
21290;BME280;10804;48.988;2.408;2023-05-08T05:43:41;101498.63;;;16.36;63.95
21290;BME280;10804;48.988;2.408;2023-05-08T05:46:09;101502.25;;;16.34;63.90
21290;BME280;10804;48.988;2.408;2023-05-08T05:48:38;101499.63;;;16.34;63.95
21290;BME280;10804;48.988;2.408;2023-05-08T05:51:07;101486.47;;;16.34;63.95
21290;BME280;10804;48.988;2.408;2023-05-08T05:53:36;101487.31;;;16.34;63.97
21290;BME280;10804;48.988;2.408;2023-05-08T05:56:05;101491.72;;;16.34;63.88
21290;BME280;10804;48.988;2.408;2023-05-08T05:58:33;101491.72;;;16.34;63.88
21290;BME280;10804;48.988;2.408;2023-05-08T06:01:00;101490.84;;;16.33;63.84
21290;BME280;10804;48.988;2.408;2023-05-08T06:03:29;101497.88;;;16.33;63.98
21290;BME280;10804;48.988;2.408;2023-05-08T06:05:56;101497.88;;;16.33;63.96
21290;BME280;10804;48.988;2.408;2023-05-08T06:08:26;101504.88;;;16.34;63.93
21290;BME280;10804;48.988;2.408;2023-05-08T06:10:56;101504.88;;;16.34;63.85
21290;BME280;10804;48.988;2.408;2023-05-08T06:13:24;101512.81;;;16.32;63.87
21290;BME280;10804;48.988;2.408;2023-05-08T06:15:53;101512.78;;;16.34;63.95
21290;BME280;10804;48.988;2.408;2023-05-08T06:18:22;101517.19;;;16.33;63.75
21290;BME280;10804;48.988;2.408;2023-05-08T06:20:55;101518.06;;;16.34;63.85
21290;BME280;10804;48.988;2.408;2023-05-08T06:23:23;101518.06;;;16.34;63.82
21290;BME280;10804;48.988;2.408;2023-05-08T06:25:50;101514.50;;;16.35;63.85
21290;BME280;10804;48.988;2.408;2023-05-08T06:28:19;101515.47;;;16.32;63.81
21290;BME280;10804;48.988;2.408;2023-05-08T06:30:47;101518.06;;;16.34;63.85
21290;BME280;10804;48.988;2.408;2023-05-08T06:33:14;101521.56;;;16.33;63.79
21290;BME280;10804;48.988;2.408;2023-05-08T06:35:45;101515.41;;;16.34;63.71
21290;BME280;10804;48.988;2.408;2023-05-08T06:38:12;101524.09;;;16.36;63.74
21290;BME280;10804;48.988;2.408;2023-05-08T06:40:41;101512.78;;;16.34;63.62
21290;BME280;10804;48.988;2.408;2023-05-08T06:43:08;101516.22;;;16.36;63.72
21290;BME280;10804;48.988;2.408;2023-05-08T06:45:37;101519.75;;;16.35;63.71
21290;BME280;10804;48.988;2.408;2023-05-08T06:48:05;101516.22;;;16.36;63.70
21290;BME280;10804;48.988;2.408;2023-05-08T06:50:33;101520.59;;;16.35;63.73
21290;BME280;10804;48.988;2.408;2023-05-08T06:53:00;101519.69;;;16.36;63.75
21290;BME280;10804;48.988;2.408;2023-05-08T06:55:27;101508.31;;;16.36;63.70
21290;BME280;10804;48.988;2.408;2023-05-08T06:57:55;101513.56;;;16.36;63.66
21290;BME280;10804;48.988;2.408;2023-05-08T07:00:22;101513.56;;;16.36;63.66
21290;BME280;10804;48.988;2.408;2023-05-08T07:02:51;101513.56;;;16.37;63.75
21290;BME280;10804;48.988;2.408;2023-05-08T07:05:19;101525.84;;;16.37;63.63
21290;BME280;10804;48.988;2.408;2023-05-08T07:07:46;101527.56;;;16.38;63.61
21290;BME280;10804;48.988;2.408;2023-05-08T07:10:13;101524.94;;;16.38;63.60
21290;BME280;10804;48.988;2.408;2023-05-08T07:12:41;101521.47;;;16.37;63.56
21290;BME280;10804;48.988;2.408;2023-05-08T07:15:09;101530.22;;;16.38;63.49
21290;BME280;10804;48.988;2.408;2023-05-08T07:17:37;101541.59;;;16.38;63.51
21290;BME280;10804;48.988;2.408;2023-05-08T07:20:07;101546.00;;;16.38;63.57
21290;BME280;10804;48.988;2.408;2023-05-08T07:22:34;101547.72;;;16.39;63.42
21290;BME280;10804;48.988;2.408;2023-05-08T07:25:02;101538.91;;;16.40;63.55
21290;BME280;10804;48.988;2.408;2023-05-08T07:27:29;101544.16;;;16.40;63.45
21290;BME280;10804;48.988;2.408;2023-05-08T07:29:57;101546.78;;;16.40;63.36
21290;BME280;10804;48.988;2.408;2023-05-08T07:32:28;101557.31;;;16.40;63.35
21290;BME280;10804;48.988;2.408;2023-05-08T07:34:56;101558.25;;;16.39;63.37
21290;BME280;10804;48.988;2.408;2023-05-08T07:37:25;101561.72;;;16.41;63.52
21290;BME280;10804;48.988;2.408;2023-05-08T07:39:54;101550.31;;;16.40;63.43
21290;BME280;10804;48.988;2.408;2023-05-08T07:42:21;101558.19;;;16.40;63.58
21290;BME280;10804;48.988;2.408;2023-05-08T07:44:48;101554.69;;;16.40;63.37
21290;BME280;10804;48.988;2.408;2023-05-08T07:47:16;101561.72;;;16.41;63.40
21290;BME280;10804;48.988;2.408;2023-05-08T07:49:44;101566.97;;;16.41;63.42
21290;BME280;10804;48.988;2.408;2023-05-08T07:52:11;101575.66;;;16.43;63.49
21290;BME280;10804;48.988;2.408;2023-05-08T07:54:40;101580.94;;;16.43;63.31
21290;BME280;10804;48.988;2.408;2023-05-08T07:57:07;101580.94;;;16.43;63.22
21290;BME280;10804;48.988;2.408;2023-05-08T07:59:34;101578.22;;;16.44;63.36
21290;BME280;10804;48.988;2.408;2023-05-08T08:02:02;101575.59;;;16.44;63.24
21290;BME280;10804;48.988;2.408;2023-05-08T08:04:29;101580.84;;;16.44;63.29
21290;BME280;10804;48.988;2.408;2023-05-08T08:06:56;101586.06;;;16.46;63.38
21290;BME280;10804;48.988;2.408;2023-05-08T08:09:24;101585.25;;;16.45;63.25
21290;BME280;10804;48.988;2.408;2023-05-08T08:11:52;101587.03;;;16.43;63.26
21290;BME280;10804;48.988;2.408;2023-05-08T08:14:20;101587.78;;;16.47;63.20
21290;BME280;10804;48.988;2.408;2023-05-08T08:16:47;101582.47;;;16.48;63.31
21290;BME280;10804;48.988;2.408;2023-05-08T08:19:14;101578.94;;;16.49;63.10
21290;BME280;10804;48.988;2.408;2023-05-08T08:21:42;101571.91;;;16.50;63.36
21290;BME280;10804;48.988;2.408;2023-05-08T08:24:09;101575.50;;;16.47;63.14
21290;BME280;10804;48.988;2.408;2023-05-08T08:26:37;101571.91;;;16.50;63.14
21290;BME280;10804;48.988;2.408;2023-05-08T08:29:05;101572.69;;;16.52;63.21
21290;BME280;10804;48.988;2.408;2023-05-08T08:31:33;101567.31;;;16.55;63.09
21290;BME280;10804;48.988;2.408;2023-05-08T08:34:00;101577.84;;;16.55;63.04
21290;BME280;10804;48.988;2.408;2023-05-08T08:36:27;101577.91;;;16.53;64.95
21290;BME280;10804;48.988;2.408;2023-05-08T08:38:55;101583.34;;;16.49;65.59
21290;BME280;10804;48.988;2.408;2023-05-08T08:41:22;101583.34;;;16.49;66.21
21290;BME280;10804;48.988;2.408;2023-05-08T08:43:49;101586.00;;;16.49;65.82
21290;BME280;10804;48.988;2.408;2023-05-08T08:46:19;101585.00;;;16.51;66.21
21290;BME280;10804;48.988;2.408;2023-05-08T08:48:52;101579.09;;;16.45;66.28
21290;BME280;10804;48.988;2.408;2023-05-08T08:51:24;101583.56;;;16.43;67.06
21290;BME280;10804;48.988;2.408;2023-05-08T08:54:02;101588.84;;;16.43;67.48
21290;BME280;10804;48.988;2.408;2023-05-08T08:56:30;101590.66;;;16.41;66.35
21290;BME280;10804;48.988;2.408;2023-05-08T08:58:59;101586.41;;;16.37;66.76
21290;BME280;10804;48.988;2.408;2023-05-08T09:01:29;101596.94;;;16.37;67.39
21290;BME280;10804;48.988;2.408;2023-05-08T09:04:01;101583.00;;;16.33;67.73
21290;BME280;10804;48.988;2.408;2023-05-08T09:06:28;101592.44;;;16.40;67.93
21290;BME280;10804;48.988;2.408;2023-05-08T09:08:56;101587.91;;;16.44;67.10
21290;BME280;10804;48.988;2.408;2023-05-08T09:11:24;101592.31;;;16.43;67.61
21290;BME280;10804;48.988;2.408;2023-05-08T09:13:51;101588.75;;;16.44;67.78
21290;BME280;10804;48.988;2.408;2023-05-08T09:16:18;101593.19;;;16.44;67.96
21290;BME280;10804;48.988;2.408;2023-05-08T09:18:47;101595.69;;;16.47;68.02
21290;BME280;10804;48.988;2.408;2023-05-08T09:21:14;101600.16;;;16.45;68.31
21290;BME280;10804;48.988;2.408;2023-05-08T09:23:55;101599.16;;;16.49;67.73
21290;BME280;10804;48.988;2.408;2023-05-08T09:26:26;101598.91;;;16.55;67.16
21290;BME280;10804;48.988;2.408;2023-05-08T09:29:07;101587.38;;;16.59;67.03
21290;BME280;10804;48.988;2.408;2023-05-08T09:31:35;101599.47;;;16.63;66.04
21290;BME280;10804;48.988;2.408;2023-05-08T09:34:06;101594.97;;;16.66;65.64
21290;BME280;10804;48.988;2.408;2023-05-08T09:36:33;101603.16;;;16.59;67.54
21290;BME280;10804;48.988;2.408;2023-05-08T09:39:01;101592.63;;;16.59;67.27
21290;BME280;10804;48.988;2.408;2023-05-08T09:41:29;101597.91;;;16.59;67.74
21290;BME280;10804;48.988;2.408;2023-05-08T09:44:01;101591.75;;;16.58;67.95
21290;BME280;10804;48.988;2.408;2023-05-08T09:46:29;101583.84;;;16.58;67.41
21290;BME280;10804;48.988;2.408;2023-05-08T09:49:00;101582.06;;;16.60;67.70
21290;BME280;10804;48.988;2.408;2023-05-08T09:51:30;101583.81;;;16.60;67.15
21290;BME280;10804;48.988;2.408;2023-05-08T09:53:58;101568.00;;;16.60;67.42
21290;BME280;10804;48.988;2.408;2023-05-08T09:56:33;101575.09;;;16.58;67.59
21290;BME280;10804;48.988;2.408;2023-05-08T09:59:02;101574.16;;;16.60;67.38
21290;BME280;10804;48.988;2.408;2023-05-08T10:01:32;101576.81;;;16.59;67.48
21290;BME280;10804;48.988;2.408;2023-05-08T10:04:00;101574.97;;;16.61;67.40
21290;BME280;10804;48.988;2.408;2023-05-08T10:06:30;101571.56;;;16.59;67.44
21290;BME280;10804;48.988;2.408;2023-05-08T10:09:10;101570.59;;;16.61;67.38
21290;BME280;10804;48.988;2.408;2023-05-08T10:11:38;101561.88;;;16.59;67.73
21290;BME280;10804;48.988;2.408;2023-05-08T10:14:06;101567.88;;;16.63;67.34
21290;BME280;10804;48.988;2.408;2023-05-08T10:16:39;101563.66;;;16.59;68.01
21290;BME280;10804;48.988;2.408;2023-05-08T10:19:11;101564.44;;;16.61;67.87
21290;BME280;10804;48.988;2.408;2023-05-08T10:21:42;101557.25;;;16.66;67.55
21290;BME280;10804;48.988;2.408;2023-05-08T10:24:14;101558.00;;;16.69;67.26
21290;BME280;10804;48.988;2.408;2023-05-08T10:26:51;101550.00;;;16.71;66.62
21290;BME280;10804;48.988;2.408;2023-05-08T10:29:24;101553.34;;;16.76;66.12
21290;BME280;10804;48.988;2.408;2023-05-08T10:31:55;101547.94;;;16.79;65.91
21290;BME280;10804;48.988;2.408;2023-05-08T10:34:26;101543.50;;;16.81;65.67
21290;BME280;10804;48.988;2.408;2023-05-08T10:36:55;101546.88;;;16.84;65.44
21290;BME280;10804;48.988;2.408;2023-05-08T10:39:22;101541.47;;;16.87;65.22
21290;BME280;10804;48.988;2.408;2023-05-08T10:41:51;101539.59;;;16.91;64.95
21290;BME280;10804;48.988;2.408;2023-05-08T10:44:19;101535.97;;;16.93;64.78
21290;BME280;10804;48.988;2.408;2023-05-08T10:46:52;101537.56;;;16.97;64.77
21290;BME280;10804;48.988;2.408;2023-05-08T10:49:24;101533.03;;;17.01;64.59
21290;BME280;10804;48.988;2.408;2023-05-08T10:52:08;101527.66;;;17.04;64.53
21290;BME280;10804;48.988;2.408;2023-05-08T10:54:45;101522.19;;;17.08;64.18
21290;BME280;10804;48.988;2.408;2023-05-08T10:57:14;101535.25;;;17.11;64.22
21290;BME280;10804;48.988;2.408;2023-05-08T10:59:44;101528.94;;;17.15;64.01
21290;BME280;10804;48.988;2.408;2023-05-08T11:02:12;101534.03;;;17.20;63.95
21290;BME280;10804;48.988;2.408;2023-05-08T11:04:39;101523.31;;;17.24;63.91
21290;BME280;10804;48.988;2.408;2023-05-08T11:07:08;101509.97;;;17.27;63.88
21290;BME280;10804;48.988;2.408;2023-05-08T11:09:45;101508.03;;;17.32;63.79
21290;BME280;10804;48.988;2.408;2023-05-08T11:12:22;101503.50;;;17.36;63.70
21290;BME280;10804;48.988;2.408;2023-05-08T11:14:56;101506.75;;;17.42;63.74
21290;BME280;10804;48.988;2.408;2023-05-08T11:17:24;101497.88;;;17.45;63.75
21290;BME280;10804;48.988;2.408;2023-05-08T11:19:57;101497.63;;;17.51;63.69
21290;BME280;10804;48.988;2.408;2023-05-08T11:22:27;101488.63;;;17.55;63.67
21290;BME280;10804;48.988;2.408;2023-05-08T11:24:57;101491.09;;;17.59;63.62
21290;BME280;10804;48.988;2.408;2023-05-08T11:30:36;101485.44;;;17.68;63.68
21290;BME280;10804;48.988;2.408;2023-05-08T11:33:22;101479.88;;;17.74;63.47
21290;BME280;10804;48.988;2.408;2023-05-08T11:35:56;101481.47;;;17.78;63.32
21290;BME280;10804;48.988;2.408;2023-05-08T11:38:27;101484.78;;;17.83;63.36
21290;BME280;10804;48.988;2.408;2023-05-08T11:40:57;101467.94;;;17.86;63.27
21290;BME280;10804;48.988;2.408;2023-05-08T11:43:26;101463.19;;;17.94;63.28
21290;BME280;10804;48.988;2.408;2023-05-08T11:45:59;101457.63;;;18.00;63.50
21290;BME280;10804;48.988;2.408;2023-05-08T11:48:28;101458.28;;;18.05;63.25
21290;BME280;10804;48.988;2.408;2023-05-08T11:50:55;101456.22;;;18.11;63.24
21290;BME280;10804;48.988;2.408;2023-05-08T11:53:23;101446.31;;;18.16;63.21
21290;BME280;10804;48.988;2.408;2023-05-08T11:55:53;101433.78;;;18.21;63.11
21290;BME280;10804;48.988;2.408;2023-05-08T11:58:20;101431.75;;;18.26;63.02
21290;BME280;10804;48.988;2.408;2023-05-08T12:00:48;101425.38;;;18.32;62.97
21290;BME280;10804;48.988;2.408;2023-05-08T12:03:17;101425.09;;;18.38;62.86
21290;BME280;10804;48.988;2.408;2023-05-08T12:05:44;101423.09;;;18.43;62.71
21290;BME280;10804;48.988;2.408;2023-05-08T12:08:13;101414.97;;;18.47;62.78
21290;BME280;10804;48.988;2.408;2023-05-08T12:10:47;101414.63;;;18.55;62.66
21290;BME280;10804;48.988;2.408;2023-05-08T12:13:18;101415.28;;;18.58;62.71
21290;BME280;10804;48.988;2.408;2023-05-08T12:15:47;101412.38;;;18.64;62.56
21290;BME280;10804;48.988;2.408;2023-05-08T12:18:15;101412.94;;;18.71;62.54
21290;BME280;10804;48.988;2.408;2023-05-08T12:20:43;101421.44;;;18.77;62.44
21290;BME280;10804;48.988;2.408;2023-05-08T12:23:11;101410.63;;;18.82;62.55
21290;BME280;10804;48.988;2.408;2023-05-08T12:25:39;101408.63;;;18.87;62.46
21290;BME280;10804;48.988;2.408;2023-05-08T12:28:07;101389.78;;;18.93;62.27
21290;BME280;10804;48.988;2.408;2023-05-08T12:30:36;101399.31;;;18.97;62.32
21290;BME280;10804;48.988;2.408;2023-05-08T12:33:04;101390.31;;;19.01;62.34
21290;BME280;10804;48.988;2.408;2023-05-08T12:35:32;101386.63;;;19.03;62.23
21290;BME280;10804;48.988;2.408;2023-05-08T12:38:00;101393.25;;;19.12;62.13
21290;BME280;10804;48.988;2.408;2023-05-08T12:40:29;101390.31;;;19.18;62.22
21290;BME280;10804;48.988;2.408;2023-05-08T12:42:59;101374.25;;;19.22;62.16
21290;BME280;10804;48.988;2.408;2023-05-08T12:45:28;101377.59;;;19.26;62.04
21290;BME280;10804;48.988;2.408;2023-05-08T12:48:00;101383.34;;;19.34;61.97
21290;BME280;10804;48.988;2.408;2023-05-08T12:50:33;101383.03;;;19.40;62.04
21290;BME280;10804;48.988;2.408;2023-05-08T12:53:01;101377.56;;;19.43;61.95
21290;BME280;10804;48.988;2.408;2023-05-08T12:55:31;101376.38;;;19.48;61.95
21290;BME280;10804;48.988;2.408;2023-05-08T12:58:01;101375.22;;;19.54;61.75
21290;BME280;10804;48.988;2.408;2023-05-08T13:00:40;101376.72;;;19.59;61.86
21290;BME280;10804;48.988;2.408;2023-05-08T13:03:10;101370.31;;;19.63;61.70
21290;BME280;10804;48.988;2.408;2023-05-08T13:05:41;101367.59;;;19.65;61.78
21290;BME280;10804;48.988;2.408;2023-05-08T13:08:09;101379.56;;;19.72;61.69
21290;BME280;10804;48.988;2.408;2023-05-08T13:10:44;101367.84;;;19.76;61.66
21290;BME280;10804;48.988;2.408;2023-05-08T13:13:12;101380.94;;;19.79;61.70